sensor_id;sensor_type;location;lat;lon;timestamp;P1;durP1;ratioP1;P2;durP2;ratioP2
72645;SDS011;60687;53.876;10.674;2022-12-28T00:02:03;19.35;;;8.52;;
72645;SDS011;60687;53.876;10.674;2022-12-28T00:12:05;17.07;;;7.60;;
72645;SDS011;60687;53.876;10.674;2022-12-28T00:22:08;16.00;;;7.20;;
72645;SDS011;60687;53.876;10.674;2022-12-28T00:32:10;16.17;;;6.72;;
72645;SDS011;60687;53.876;10.674;2022-12-28T00:42:14;14.77;;;5.75;;
72645;SDS011;60687;53.876;10.674;2022-12-28T00:52:27;15.17;;;4.80;;
72645;SDS011;60687;53.876;10.674;2022-12-28T01:02:34;11.70;;;4.40;;
72645;SDS011;60687;53.876;10.674;2022-12-28T01:12:36;10.38;;;3.67;;
72645;SDS011;60687;53.876;10.674;2022-12-28T01:22:39;9.50;;;3.37;;
72645;SDS011;60687;53.876;10.674;2022-12-28T01:32:41;8.30;;;2.90;;
72645;SDS011;60687;53.876;10.674;2022-12-28T01:42:45;7.78;;;2.72;;
72645;SDS011;60687;53.876;10.674;2022-12-28T01:52:47;7.37;;;2.17;;
72645;SDS011;60687;53.876;10.674;2022-12-28T02:02:53;7.97;;;2.80;;
72645;SDS011;60687;53.876;10.674;2022-12-28T02:13:08;7.35;;;2.47;;
72645;SDS011;60687;53.876;10.674;2022-12-28T02:33:58;6.27;;;1.97;;
72645;SDS011;60687;53.876;10.674;2022-12-28T02:44:09;6.50;;;2.17;;
72645;SDS011;60687;53.876;10.674;2022-12-28T02:54:22;6.97;;;2.08;;
72645;SDS011;60687;53.876;10.674;2022-12-28T03:05:05;6.93;;;2.00;;
72645;SDS011;60687;53.876;10.674;2022-12-28T03:15:12;5.80;;;1.90;;
72645;SDS011;60687;53.876;10.674;2022-12-28T03:25:29;4.75;;;1.42;;
72645;SDS011;60687;53.876;10.674;2022-12-28T03:35:54;7.53;;;1.63;;
72645;SDS011;60687;53.876;10.674;2022-12-28T03:46:10;8.23;;;2.20;;
72645;SDS011;60687;53.876;10.674;2022-12-28T03:56:28;5.60;;;2.05;;
72645;SDS011;60687;53.876;10.674;2022-12-28T04:06:33;6.13;;;2.00;;
72645;SDS011;60687;53.876;10.674;2022-12-28T04:16:41;6.80;;;2.10;;
72645;SDS011;60687;53.876;10.674;2022-12-28T04:26:43;7.13;;;2.13;;
72645;SDS011;60687;53.876;10.674;2022-12-28T04:36:46;7.53;;;2.10;;
72645;SDS011;60687;53.876;10.674;2022-12-28T04:46:48;8.33;;;2.47;;
72645;SDS011;60687;53.876;10.674;2022-12-28T04:56:52;8.23;;;2.00;;
72645;SDS011;60687;53.876;10.674;2022-12-28T05:06:53;6.55;;;2.60;;
72645;SDS011;60687;53.876;10.674;2022-12-28T05:16:57;7.00;;;2.10;;
72645;SDS011;60687;53.876;10.674;2022-12-28T05:26:59;5.50;;;2.10;;
72645;SDS011;60687;53.876;10.674;2022-12-28T05:37:02;6.03;;;2.40;;
72645;SDS011;60687;53.876;10.674;2022-12-28T05:47:04;5.47;;;2.00;;
72645;SDS011;60687;53.876;10.674;2022-12-28T05:57:08;6.53;;;2.00;;
72645;SDS011;60687;53.876;10.674;2022-12-28T06:07:11;6.00;;;2.50;;
72645;SDS011;60687;53.876;10.674;2022-12-28T06:17:15;7.45;;;2.38;;
72645;SDS011;60687;53.876;10.674;2022-12-28T06:27:20;6.63;;;2.87;;
72645;SDS011;60687;53.876;10.674;2022-12-28T06:37:32;6.27;;;2.20;;
72645;SDS011;60687;53.876;10.674;2022-12-28T06:47:42;8.27;;;2.80;;
72645;SDS011;60687;53.876;10.674;2022-12-28T06:57:55;6.00;;;2.20;;
72645;SDS011;60687;53.876;10.674;2022-12-28T07:08:06;6.27;;;2.23;;
72645;SDS011;60687;53.876;10.674;2022-12-28T07:18:18;6.88;;;2.70;;
72645;SDS011;60687;53.876;10.674;2022-12-28T07:28:23;6.18;;;2.25;;
72645;SDS011;60687;53.876;10.674;2022-12-28T07:38:27;6.00;;;2.47;;
72645;SDS011;60687;53.876;10.674;2022-12-28T07:48:29;6.47;;;2.60;;
72645;SDS011;60687;53.876;10.674;2022-12-28T07:58:33;6.90;;;2.42;;
72645;SDS011;60687;53.876;10.674;2022-12-28T08:08:36;8.47;;;2.80;;
72645;SDS011;60687;53.876;10.674;2022-12-28T08:18:41;7.53;;;2.60;;
72645;SDS011;60687;53.876;10.674;2022-12-28T08:28:43;7.10;;;2.75;;
72645;SDS011;60687;53.876;10.674;2022-12-28T08:38:48;6.80;;;2.97;;
72645;SDS011;60687;53.876;10.674;2022-12-28T08:48:51;10.57;;;3.73;;
72645;SDS011;60687;53.876;10.674;2022-12-28T08:58:56;9.18;;;3.78;;
72645;SDS011;60687;53.876;10.674;2022-12-28T09:09:00;9.73;;;5.05;;
72645;SDS011;60687;53.876;10.674;2022-12-28T09:19:06;9.83;;;5.27;;
72645;SDS011;60687;53.876;10.674;2022-12-28T09:29:09;7.97;;;3.50;;
72645;SDS011;60687;53.876;10.674;2022-12-28T09:39:15;6.60;;;2.78;;
72645;SDS011;60687;53.876;10.674;2022-12-28T09:49:24;7.00;;;3.00;;
72645;SDS011;60687;53.876;10.674;2022-12-28T09:59:35;7.17;;;3.07;;
72645;SDS011;60687;53.876;10.674;2022-12-28T10:09:39;10.60;;;6.50;;
72645;SDS011;60687;53.876;10.674;2022-12-28T10:19:44;11.30;;;6.07;;
72645;SDS011;60687;53.876;10.674;2022-12-28T10:29:47;21.80;;;6.00;;
72645;SDS011;60687;53.876;10.674;2022-12-28T10:39:54;19.98;;;5.65;;
72645;SDS011;60687;53.876;10.674;2022-12-28T10:49:58;12.27;;;7.32;;
72645;SDS011;60687;53.876;10.674;2022-12-28T11:00:14;17.83;;;6.63;;
72645;SDS011;60687;53.876;10.674;2022-12-28T11:10:24;10.30;;;5.30;;
72645;SDS011;60687;53.876;10.674;2022-12-28T11:20:31;10.15;;;5.05;;
72645;SDS011;60687;53.876;10.674;2022-12-28T11:30:38;10.70;;;4.80;;
72645;SDS011;60687;53.876;10.674;2022-12-28T11:40:48;10.13;;;4.70;;
72645;SDS011;60687;53.876;10.674;2022-12-28T11:50:52;10.23;;;4.95;;
72645;SDS011;60687;53.876;10.674;2022-12-28T12:00:56;9.93;;;4.83;;
72645;SDS011;60687;53.876;10.674;2022-12-28T12:21:38;10.07;;;5.10;;
72645;SDS011;60687;53.876;10.674;2022-12-28T12:31:44;9.65;;;4.45;;
72645;SDS011;60687;53.876;10.674;2022-12-28T12:41:52;7.43;;;3.40;;
72645;SDS011;60687;53.876;10.674;2022-12-28T12:52:03;7.27;;;3.80;;
72645;SDS011;60687;53.876;10.674;2022-12-28T13:02:31;7.20;;;3.30;;
72645;SDS011;60687;53.876;10.674;2022-12-28T13:12:47;7.43;;;3.60;;
72645;SDS011;60687;53.876;10.674;2022-12-28T13:22:50;7.53;;;3.37;;
72645;SDS011;60687;53.876;10.674;2022-12-28T13:33:00;8.32;;;4.07;;
72645;SDS011;60687;53.876;10.674;2022-12-28T13:43:08;8.10;;;3.80;;
72645;SDS011;60687;53.876;10.674;2022-12-28T13:53:31;7.60;;;3.20;;
72645;SDS011;60687;53.876;10.674;2022-12-28T14:03:41;7.43;;;3.42;;
72645;SDS011;60687;53.876;10.674;2022-12-28T14:13:43;8.57;;;3.63;;
72645;SDS011;60687;53.876;10.674;2022-12-28T14:23:47;9.47;;;4.40;;
72645;SDS011;60687;53.876;10.674;2022-12-28T14:33:49;8.43;;;3.87;;
72645;SDS011;60687;53.876;10.674;2022-12-28T14:43:58;8.93;;;3.75;;
72645;SDS011;60687;53.876;10.674;2022-12-28T15:04:35;9.57;;;4.00;;
72645;SDS011;60687;53.876;10.674;2022-12-28T15:15:07;8.32;;;3.55;;
72645;SDS011;60687;53.876;10.674;2022-12-28T15:46:03;7.28;;;3.17;;
72645;SDS011;60687;53.876;10.674;2022-12-28T15:56:15;7.18;;;2.80;;
72645;SDS011;60687;53.876;10.674;2022-12-28T16:06:37;7.97;;;3.30;;
72645;SDS011;60687;53.876;10.674;2022-12-28T16:16:51;6.53;;;2.63;;
72645;SDS011;60687;53.876;10.674;2022-12-28T16:26:58;6.95;;;2.55;;
72645;SDS011;60687;53.876;10.674;2022-12-28T16:37:05;6.50;;;2.40;;
72645;SDS011;60687;53.876;10.674;2022-12-28T16:47:50;5.70;;;2.00;;
72645;SDS011;60687;53.876;10.674;2022-12-28T16:57:53;5.90;;;2.15;;
72645;SDS011;60687;53.876;10.674;2022-12-28T17:19:08;6.60;;;2.10;;
72645;SDS011;60687;53.876;10.674;2022-12-28T17:29:20;5.55;;;2.05;;
72645;SDS011;60687;53.876;10.674;2022-12-28T17:50:21;6.10;;;2.23;;
72645;SDS011;60687;53.876;10.674;2022-12-28T18:00:27;6.83;;;2.73;;
72645;SDS011;60687;53.876;10.674;2022-12-28T18:32:10;7.47;;;2.73;;
72645;SDS011;60687;53.876;10.674;2022-12-28T18:53:13;7.70;;;3.43;;
72645;SDS011;60687;53.876;10.674;2022-12-28T19:03:15;8.03;;;3.10;;
72645;SDS011;60687;53.876;10.674;2022-12-28T19:23:46;7.50;;;3.30;;
72645;SDS011;60687;53.876;10.674;2022-12-28T19:33:52;7.93;;;3.00;;
72645;SDS011;60687;53.876;10.674;2022-12-28T19:43:54;6.30;;;2.70;;
72645;SDS011;60687;53.876;10.674;2022-12-28T19:53:58;8.32;;;3.50;;
72645;SDS011;60687;53.876;10.674;2022-12-28T20:04:00;7.77;;;3.03;;
72645;SDS011;60687;53.876;10.674;2022-12-28T20:14:04;7.97;;;3.33;;
72645;SDS011;60687;53.876;10.674;2022-12-28T20:24:07;8.77;;;3.83;;
72645;SDS011;60687;53.876;10.674;2022-12-28T20:34:25;7.50;;;3.30;;
72645;SDS011;60687;53.876;10.674;2022-12-28T20:44:27;6.70;;;2.87;;
72645;SDS011;60687;53.876;10.674;2022-12-28T20:54:37;7.63;;;2.60;;
72645;SDS011;60687;53.876;10.674;2022-12-28T21:04:48;6.45;;;2.47;;
72645;SDS011;60687;53.876;10.674;2022-12-28T21:14:53;6.70;;;2.90;;
72645;SDS011;60687;53.876;10.674;2022-12-28T21:24:55;6.70;;;2.20;;
72645;SDS011;60687;53.876;10.674;2022-12-28T21:34:59;6.93;;;2.67;;
72645;SDS011;60687;53.876;10.674;2022-12-28T21:45:01;6.30;;;2.37;;
72645;SDS011;60687;53.876;10.674;2022-12-28T21:55:13;6.20;;;1.97;;
72645;SDS011;60687;53.876;10.674;2022-12-28T22:05:32;7.82;;;2.92;;
72645;SDS011;60687;53.876;10.674;2022-12-28T22:15:55;6.03;;;2.50;;
72645;SDS011;60687;53.876;10.674;2022-12-28T22:25:57;6.40;;;2.20;;
72645;SDS011;60687;53.876;10.674;2022-12-28T22:36:10;7.30;;;2.78;;
72645;SDS011;60687;53.876;10.674;2022-12-28T22:46:14;6.57;;;2.70;;
72645;SDS011;60687;53.876;10.674;2022-12-28T22:56:44;6.90;;;2.80;;
72645;SDS011;60687;53.876;10.674;2022-12-28T23:18:02;6.45;;;2.50;;
72645;SDS011;60687;53.876;10.674;2022-12-28T23:28:29;6.70;;;3.03;;
72645;SDS011;60687;53.876;10.674;2022-12-28T23:38:39;6.30;;;2.60;;
72645;SDS011;60687;53.876;10.674;2022-12-28T23:48:51;6.75;;;2.50;;
